sensor_id;sensor_type;location;lat;lon;timestamp;pressure;altitude;pressure_sealevel;temperature;humidity
10518;BME280;5307;42.548;22.968;2022-10-16T00:01:05;94458.94;;;6.71;97.78
10518;BME280;5307;42.548;22.968;2022-10-16T00:03:32;94469.38;;;6.73;97.70
10518;BME280;5307;42.548;22.968;2022-10-16T00:06:00;94460.44;;;6.76;97.72
10518;BME280;5307;42.548;22.968;2022-10-16T00:08:27;94463.19;;;6.72;96.35
10518;BME280;5307;42.548;22.968;2022-10-16T00:10:58;94465.19;;;6.68;96.83
10518;BME280;5307;42.548;22.968;2022-10-16T00:13:27;94469.03;;;6.37;98.37
10518;BME280;5307;42.548;22.968;2022-10-16T00:15:55;94473.44;;;6.58;98.59
10518;BME280;5307;42.548;22.968;2022-10-16T00:18:22;94464.88;;;6.63;98.21
10518;BME280;5307;42.548;22.968;2022-10-16T00:20:49;94463.41;;;6.54;97.60
10518;BME280;5307;42.548;22.968;2022-10-16T00:23:16;94466.13;;;6.54;97.96
10518;BME280;5307;42.548;22.968;2022-10-16T00:25:43;94470.38;;;6.86;96.45
10518;BME280;5307;42.548;22.968;2022-10-16T00:28:09;94477.50;;;6.76;94.91
10518;BME280;5307;42.548;22.968;2022-10-16T00:30:40;94472.72;;;6.53;95.32
10518;BME280;5307;42.548;22.968;2022-10-16T00:33:06;94471.19;;;6.52;96.53
10518;BME280;5307;42.548;22.968;2022-10-16T00:35:33;94472.88;;;6.39;97.13
10518;BME280;5307;42.548;22.968;2022-10-16T00:38:00;94480.94;;;6.46;97.10
10518;BME280;5307;42.548;22.968;2022-10-16T00:40:27;94475.16;;;6.44;96.88
10518;BME280;5307;42.548;22.968;2022-10-16T00:42:55;94470.19;;;6.39;96.23
10518;BME280;5307;42.548;22.968;2022-10-16T00:45:22;94475.56;;;6.43;95.97
10518;BME280;5307;42.548;22.968;2022-10-16T00:47:52;94472.13;;;6.39;96.25
10518;BME280;5307;42.548;22.968;2022-10-16T00:50:24;94476.78;;;6.38;96.17
10518;BME280;5307;42.548;22.968;2022-10-16T00:52:53;94470.69;;;6.27;96.57
10518;BME280;5307;42.548;22.968;2022-10-16T00:55:21;94476.81;;;6.35;96.87
10518;BME280;5307;42.548;22.968;2022-10-16T00:57:48;94478.53;;;6.18;97.06
10518;BME280;5307;42.548;22.968;2022-10-16T01:00:19;94473.50;;;6.16;97.57
10518;BME280;5307;42.548;22.968;2022-10-16T01:02:53;94486.66;;;6.18;97.07
10518;BME280;5307;42.548;22.968;2022-10-16T01:05:21;94471.16;;;6.22;97.24
10518;BME280;5307;42.548;22.968;2022-10-16T01:07:54;94472.84;;;6.09;97.08
10518;BME280;5307;42.548;22.968;2022-10-16T01:10:27;94476.63;;;6.15;97.71
10518;BME280;5307;42.548;22.968;2022-10-16T01:12:58;94482.66;;;6.30;97.04
10518;BME280;5307;42.548;22.968;2022-10-16T01:15:29;94478.16;;;6.19;95.59
10518;BME280;5307;42.548;22.968;2022-10-16T01:18:01;94480.50;;;6.14;95.44
10518;BME280;5307;42.548;22.968;2022-10-16T01:20:33;94474.84;;;6.01;96.88
10518;BME280;5307;42.548;22.968;2022-10-16T01:23:09;94484.13;;;6.00;96.63
10518;BME280;5307;42.548;22.968;2022-10-16T01:26:00;94480.97;;;6.09;96.37
10518;BME280;5307;42.548;22.968;2022-10-16T01:28:36;94480.44;;;5.80;96.85
10518;BME280;5307;42.548;22.968;2022-10-16T01:31:05;94456.44;;;5.78;97.02
10518;BME280;5307;42.548;22.968;2022-10-16T01:33:38;94472.25;;;5.83;97.66
10518;BME280;5307;42.548;22.968;2022-10-16T01:36:11;94467.97;;;5.86;97.16
10518;BME280;5307;42.548;22.968;2022-10-16T01:38:40;94479.56;;;5.90;97.08
10518;BME280;5307;42.548;22.968;2022-10-16T01:41:10;94485.50;;;5.78;96.77
10518;BME280;5307;42.548;22.968;2022-10-16T01:43:42;94465.34;;;5.75;97.12
10518;BME280;5307;42.548;22.968;2022-10-16T01:46:13;94482.38;;;5.76;97.60
10518;BME280;5307;42.548;22.968;2022-10-16T01:48:40;94488.47;;;5.90;96.51
10518;BME280;5307;42.548;22.968;2022-10-16T01:51:10;94495.16;;;5.75;96.87
10518;BME280;5307;42.548;22.968;2022-10-16T01:53:39;94492.53;;;5.68;96.63
10518;BME280;5307;42.548;22.968;2022-10-16T01:56:09;94494.06;;;5.69;97.07
10518;BME280;5307;42.548;22.968;2022-10-16T01:58:42;94499.31;;;5.90;97.14
10518;BME280;5307;42.548;22.968;2022-10-16T02:01:13;94499.41;;;5.80;96.52
10518;BME280;5307;42.548;22.968;2022-10-16T02:03:43;94497.91;;;5.72;97.03
10518;BME280;5307;42.548;22.968;2022-10-16T02:06:11;94506.78;;;5.79;96.45
10518;BME280;5307;42.548;22.968;2022-10-16T02:08:38;94516.47;;;5.73;97.67
10518;BME280;5307;42.548;22.968;2022-10-16T02:11:10;94518.66;;;5.89;97.52
10518;BME280;5307;42.548;22.968;2022-10-16T02:13:39;94519.88;;;5.91;96.68
10518;BME280;5307;42.548;22.968;2022-10-16T02:16:12;94521.81;;;5.84;96.18
10518;BME280;5307;42.548;22.968;2022-10-16T02:18:40;94526.94;;;5.71;96.26
10518;BME280;5307;42.548;22.968;2022-10-16T02:21:13;94527.78;;;5.64;96.74
10518;BME280;5307;42.548;22.968;2022-10-16T02:23:46;94525.50;;;5.59;97.50
10518;BME280;5307;42.548;22.968;2022-10-16T02:26:22;94529.63;;;5.78;96.20
10518;BME280;5307;42.548;22.968;2022-10-16T02:28:55;94539.81;;;5.60;96.62
10518;BME280;5307;42.548;22.968;2022-10-16T02:31:27;94533.66;;;5.56;96.63
10518;BME280;5307;42.548;22.968;2022-10-16T02:33:56;94536.50;;;5.90;95.83
10518;BME280;5307;42.548;22.968;2022-10-16T02:36:25;94538.16;;;5.73;95.41
10518;BME280;5307;42.548;22.968;2022-10-16T02:38:52;94541.16;;;5.86;94.83
10518;BME280;5307;42.548;22.968;2022-10-16T02:41:21;94541.25;;;5.75;95.24
10518;BME280;5307;42.548;22.968;2022-10-16T02:43:48;94542.09;;;5.65;95.66
10518;BME280;5307;42.548;22.968;2022-10-16T02:46:17;94542.84;;;5.69;96.28
10518;BME280;5307;42.548;22.968;2022-10-16T02:48:45;94539.75;;;5.67;95.04
10518;BME280;5307;42.548;22.968;2022-10-16T02:51:12;94537.56;;;5.48;95.73
10518;BME280;5307;42.548;22.968;2022-10-16T02:53:39;94541.41;;;5.54;95.22
10518;BME280;5307;42.548;22.968;2022-10-16T02:56:06;94534.47;;;5.46;95.49
10518;BME280;5307;42.548;22.968;2022-10-16T02:58:33;94532.09;;;5.55;95.30
10518;BME280;5307;42.548;22.968;2022-10-16T03:00:59;94526.34;;;5.46;95.58
10518;BME280;5307;42.548;22.968;2022-10-16T03:03:26;94532.31;;;5.26;95.96
10518;BME280;5307;42.548;22.968;2022-10-16T03:05:55;94530.75;;;5.25;96.60
10518;BME280;5307;42.548;22.968;2022-10-16T03:08:21;94536.19;;;5.22;97.08
10518;BME280;5307;42.548;22.968;2022-10-16T03:10:51;94534.22;;;5.26;96.95
10518;BME280;5307;42.548;22.968;2022-10-16T03:13:17;94536.56;;;5.24;96.66
10518;BME280;5307;42.548;22.968;2022-10-16T03:15:45;94520.28;;;5.27;96.53
10518;BME280;5307;42.548;22.968;2022-10-16T03:18:12;94535.72;;;5.38;96.50
10518;BME280;5307;42.548;22.968;2022-10-16T03:20:39;94538.13;;;5.25;96.32
10518;BME280;5307;42.548;22.968;2022-10-16T03:23:07;94539.22;;;5.31;95.72
10518;BME280;5307;42.548;22.968;2022-10-16T03:25:34;94536.97;;;5.22;95.02
10518;BME280;5307;42.548;22.968;2022-10-16T03:28:01;94531.06;;;5.34;95.88
10518;BME280;5307;42.548;22.968;2022-10-16T03:30:28;94532.34;;;5.16;97.03
10518;BME280;5307;42.548;22.968;2022-10-16T03:32:55;94533.50;;;5.22;97.11
10518;BME280;5307;42.548;22.968;2022-10-16T03:35:22;94535.88;;;5.05;97.66
10518;BME280;5307;42.548;22.968;2022-10-16T03:37:49;94552.06;;;5.23;96.77
10518;BME280;5307;42.548;22.968;2022-10-16T03:40:18;94539.31;;;5.17;96.50
10518;BME280;5307;42.548;22.968;2022-10-16T03:42:45;94541.66;;;5.11;95.94
10518;BME280;5307;42.548;22.968;2022-10-16T03:45:12;94540.06;;;5.24;95.76
10518;BME280;5307;42.548;22.968;2022-10-16T03:47:40;94545.94;;;5.09;96.46
10518;BME280;5307;42.548;22.968;2022-10-16T03:50:07;94542.47;;;5.04;96.62
10518;BME280;5307;42.548;22.968;2022-10-16T03:52:34;94554.03;;;5.12;95.50
10518;BME280;5307;42.548;22.968;2022-10-16T03:55:01;94545.63;;;4.96;96.37
10518;BME280;5307;42.548;22.968;2022-10-16T03:57:29;94542.47;;;5.04;95.99
10518;BME280;5307;42.548;22.968;2022-10-16T03:59:56;94542.50;;;5.01;95.86
10518;BME280;5307;42.548;22.968;2022-10-16T04:02:24;94537.03;;;5.04;95.62
10518;BME280;5307;42.548;22.968;2022-10-16T04:04:51;94549.75;;;5.15;95.78
10518;BME280;5307;42.548;22.968;2022-10-16T04:07:18;94545.97;;;5.01;95.89
10518;BME280;5307;42.548;22.968;2022-10-16T04:09:44;94545.25;;;4.94;96.04
10518;BME280;5307;42.548;22.968;2022-10-16T04:12:11;94537.88;;;4.98;96.50
10518;BME280;5307;42.548;22.968;2022-10-16T04:14:40;94536.75;;;4.88;96.61
10518;BME280;5307;42.548;22.968;2022-10-16T04:17:06;94535.19;;;4.87;96.43
10518;BME280;5307;42.548;22.968;2022-10-16T04:19:33;94532.19;;;4.71;96.81
10518;BME280;5307;42.548;22.968;2022-10-16T04:22:00;94529.47;;;4.74;98.00
10518;BME280;5307;42.548;22.968;2022-10-16T04:24:27;94536.38;;;4.83;97.00
10518;BME280;5307;42.548;22.968;2022-10-16T04:26:54;94534.09;;;4.74;97.10
10518;BME280;5307;42.548;22.968;2022-10-16T04:29:20;94524.50;;;4.59;97.39
10518;BME280;5307;42.548;22.968;2022-10-16T04:31:48;94525.53;;;4.93;96.58
10518;BME280;5307;42.548;22.968;2022-10-16T04:34:15;94540.22;;;4.89;96.19
10518;BME280;5307;42.548;22.968;2022-10-16T04:36:42;94541.38;;;4.91;96.04
10518;BME280;5307;42.548;22.968;2022-10-16T04:39:09;94542.09;;;5.02;95.34
10518;BME280;5307;42.548;22.968;2022-10-16T04:41:36;94544.19;;;4.63;95.16
10518;BME280;5307;42.548;22.968;2022-10-16T04:44:03;94551.13;;;4.71;96.13
10518;BME280;5307;42.548;22.968;2022-10-16T04:46:29;94551.91;;;4.68;96.47
10518;BME280;5307;42.548;22.968;2022-10-16T04:48:58;94557.31;;;4.68;96.59
10518;BME280;5307;42.548;22.968;2022-10-16T04:51:25;94553.84;;;4.67;96.12
10518;BME280;5307;42.548;22.968;2022-10-16T04:53:53;94556.56;;;4.67;97.19
10518;BME280;5307;42.548;22.968;2022-10-16T04:56:20;94571.63;;;4.65;97.56
10518;BME280;5307;42.548;22.968;2022-10-16T04:58:47;94563.47;;;4.75;96.39
10518;BME280;5307;42.548;22.968;2022-10-16T05:01:13;94559.63;;;4.69;97.41
10518;BME280;5307;42.548;22.968;2022-10-16T05:03:40;94562.69;;;4.82;96.64
10518;BME280;5307;42.548;22.968;2022-10-16T05:06:08;94567.34;;;4.74;96.84
10518;BME280;5307;42.548;22.968;2022-10-16T05:08:35;94561.19;;;4.67;97.79
10518;BME280;5307;42.548;22.968;2022-10-16T05:11:02;94568.88;;;4.83;97.94
10518;BME280;5307;42.548;22.968;2022-10-16T05:13:29;94578.16;;;4.82;96.99
10518;BME280;5307;42.548;22.968;2022-10-16T05:15:55;94575.78;;;4.94;96.51
10518;BME280;5307;42.548;22.968;2022-10-16T05:18:22;94576.59;;;4.81;97.33
10518;BME280;5307;42.548;22.968;2022-10-16T05:20:49;94579.25;;;4.95;96.84
10518;BME280;5307;42.548;22.968;2022-10-16T05:23:17;94578.41;;;5.12;96.85
10518;BME280;5307;42.548;22.968;2022-10-16T05:25:52;94573.44;;;4.96;97.55
10518;BME280;5307;42.548;22.968;2022-10-16T05:28:18;94577.31;;;4.99;97.41
10518;BME280;5307;42.548;22.968;2022-10-16T05:30:45;94582.25;;;5.15;97.24
10518;BME280;5307;42.548;22.968;2022-10-16T05:33:12;94573.16;;;5.53;96.06
10518;BME280;5307;42.548;22.968;2022-10-16T05:35:39;94581.97;;;5.64;94.21
10518;BME280;5307;42.548;22.968;2022-10-16T05:38:06;94592.66;;;5.93;93.42
10518;BME280;5307;42.548;22.968;2022-10-16T05:40:34;94590.53;;;6.15;92.12
10518;BME280;5307;42.548;22.968;2022-10-16T05:43:01;94586.69;;;6.12;91.12
10518;BME280;5307;42.548;22.968;2022-10-16T05:45:27;94586.97;;;6.25;91.18
10518;BME280;5307;42.548;22.968;2022-10-16T05:47:54;94593.84;;;6.33;90.77
10518;BME280;5307;42.548;22.968;2022-10-16T05:50:21;94598.34;;;6.50;90.26
10518;BME280;5307;42.548;22.968;2022-10-16T05:52:48;94592.97;;;6.43;90.59
10518;BME280;5307;42.548;22.968;2022-10-16T05:55:15;94599.38;;;6.22;92.23
10518;BME280;5307;42.548;22.968;2022-10-16T05:57:43;94607.41;;;6.37;92.41
10518;BME280;5307;42.548;22.968;2022-10-16T06:00:10;94615.94;;;6.35;92.80
10518;BME280;5307;42.548;22.968;2022-10-16T06:02:37;94613.88;;;6.46;92.21
10518;BME280;5307;42.548;22.968;2022-10-16T06:05:04;94612.41;;;6.38;91.56
10518;BME280;5307;42.548;22.968;2022-10-16T06:07:34;94618.03;;;6.58;91.30
10518;BME280;5307;42.548;22.968;2022-10-16T06:10:01;94624.13;;;6.69;90.59
10518;BME280;5307;42.548;22.968;2022-10-16T06:12:28;94628.88;;;6.99;89.80
10518;BME280;5307;42.548;22.968;2022-10-16T06:14:56;94627.09;;;7.50;88.41
10518;BME280;5307;42.548;22.968;2022-10-16T06:17:23;94624.63;;;7.59;86.70
10518;BME280;5307;42.548;22.968;2022-10-16T06:19:50;94625.13;;;6.86;88.43
10518;BME280;5307;42.548;22.968;2022-10-16T06:22:17;94626.84;;;7.07;90.95
10518;BME280;5307;42.548;22.968;2022-10-16T06:24:44;94641.59;;;7.06;91.29
10518;BME280;5307;42.548;22.968;2022-10-16T06:27:11;94634.59;;;7.08;91.85
10518;BME280;5307;42.548;22.968;2022-10-16T06:29:38;94641.81;;;6.84;92.83
10518;BME280;5307;42.548;22.968;2022-10-16T06:32:06;94635.47;;;6.98;94.03
10518;BME280;5307;42.548;22.968;2022-10-16T06:34:33;94639.94;;;7.15;94.10
10518;BME280;5307;42.548;22.968;2022-10-16T06:37:00;94645.19;;;7.30;93.35
10518;BME280;5307;42.548;22.968;2022-10-16T06:39:27;94650.19;;;7.35;92.66
10518;BME280;5307;42.548;22.968;2022-10-16T06:41:53;94640.81;;;7.70;91.12
10518;BME280;5307;42.548;22.968;2022-10-16T06:44:20;94647.66;;;7.82;89.73
10518;BME280;5307;42.548;22.968;2022-10-16T06:46:47;94647.44;;;7.96;88.18
10518;BME280;5307;42.548;22.968;2022-10-16T06:49:16;94646.69;;;8.69;85.62
10518;BME280;5307;42.548;22.968;2022-10-16T06:51:47;94648.09;;;9.01;84.04
10518;BME280;5307;42.548;22.968;2022-10-16T06:54:15;94629.31;;;9.06;83.42
10518;BME280;5307;42.548;22.968;2022-10-16T06:56:43;94652.75;;;9.43;81.62
10518;BME280;5307;42.548;22.968;2022-10-16T06:59:10;94645.34;;;9.80;77.93
10518;BME280;5307;42.548;22.968;2022-10-16T07:01:36;94654.34;;;9.61;78.78
10518;BME280;5307;42.548;22.968;2022-10-16T07:04:03;94653.81;;;10.38;78.08
10518;BME280;5307;42.548;22.968;2022-10-16T07:06:33;94649.13;;;10.38;77.50
10518;BME280;5307;42.548;22.968;2022-10-16T07:09:03;94659.03;;;11.10;75.17
10518;BME280;5307;42.548;22.968;2022-10-16T07:11:30;94665.09;;;10.56;74.80
10518;BME280;5307;42.548;22.968;2022-10-16T07:13:57;94662.16;;;11.12;73.93
10518;BME280;5307;42.548;22.968;2022-10-16T07:16:26;94672.78;;;10.61;75.16
10518;BME280;5307;42.548;22.968;2022-10-16T07:18:53;94664.72;;;11.03;73.90
10518;BME280;5307;42.548;22.968;2022-10-16T07:21:23;94661.75;;;11.55;73.12
10518;BME280;5307;42.548;22.968;2022-10-16T07:23:53;94666.16;;;12.33;71.46
10518;BME280;5307;42.548;22.968;2022-10-16T07:26:21;94665.44;;;11.49;73.05
10518;BME280;5307;42.548;22.968;2022-10-16T07:28:48;94666.19;;;11.49;74.20
10518;BME280;5307;42.548;22.968;2022-10-16T07:31:17;94668.19;;;11.91;73.23
10518;BME280;5307;42.548;22.968;2022-10-16T07:33:45;94672.63;;;12.26;71.13
10518;BME280;5307;42.548;22.968;2022-10-16T07:36:14;94654.16;;;12.65;69.35
10518;BME280;5307;42.548;22.968;2022-10-16T07:38:41;94664.25;;;13.28;68.59
10518;BME280;5307;42.548;22.968;2022-10-16T07:41:12;94672.72;;;13.21;68.15
10518;BME280;5307;42.548;22.968;2022-10-16T07:43:39;94677.13;;;14.06;65.96
10518;BME280;5307;42.548;22.968;2022-10-16T07:46:06;94679.00;;;13.43;65.68
10518;BME280;5307;42.548;22.968;2022-10-16T07:48:34;94672.69;;;13.99;66.32
10518;BME280;5307;42.548;22.968;2022-10-16T07:51:03;94665.56;;;14.42;63.42
10518;BME280;5307;42.548;22.968;2022-10-16T07:53:30;94652.53;;;14.33;65.06
10518;BME280;5307;42.548;22.968;2022-10-16T07:55:58;94668.94;;;14.15;64.39
10518;BME280;5307;42.548;22.968;2022-10-16T07:58:26;94674.41;;;14.77;63.30
10518;BME280;5307;42.548;22.968;2022-10-16T08:00:53;94673.69;;;14.45;64.73
10518;BME280;5307;42.548;22.968;2022-10-16T08:03:28;94667.19;;;14.30;64.15
10518;BME280;5307;42.548;22.968;2022-10-16T08:05:56;94673.72;;;14.54;64.53
10518;BME280;5307;42.548;22.968;2022-10-16T08:08:23;94672.22;;;14.32;64.76
10518;BME280;5307;42.548;22.968;2022-10-16T08:10:50;94661.88;;;14.36;65.26
10518;BME280;5307;42.548;22.968;2022-10-16T08:13:17;94662.16;;;13.98;65.29
10518;BME280;5307;42.548;22.968;2022-10-16T08:15:46;94667.00;;;15.32;61.62
10518;BME280;5307;42.548;22.968;2022-10-16T08:18:14;94659.63;;;16.02;60.26
10518;BME280;5307;42.548;22.968;2022-10-16T08:20:42;94657.53;;;15.61;60.79
10518;BME280;5307;42.548;22.968;2022-10-16T08:23:09;94661.47;;;14.96;61.57
10518;BME280;5307;42.548;22.968;2022-10-16T08:25:37;94661.75;;;16.59;57.54
10518;BME280;5307;42.548;22.968;2022-10-16T08:28:05;94653.31;;;16.96;57.40
10518;BME280;5307;42.548;22.968;2022-10-16T08:30:32;94659.03;;;16.08;58.16
10518;BME280;5307;42.548;22.968;2022-10-16T08:33:01;94660.47;;;16.36;56.21
10518;BME280;5307;42.548;22.968;2022-10-16T08:35:28;94649.91;;;16.77;56.54
10518;BME280;5307;42.548;22.968;2022-10-16T08:37:55;94650.88;;;16.88;56.47
10518;BME280;5307;42.548;22.968;2022-10-16T08:40:24;94650.44;;;16.90;56.59
10518;BME280;5307;42.548;22.968;2022-10-16T08:42:59;94648.91;;;17.13;56.14
10518;BME280;5307;42.548;22.968;2022-10-16T08:45:46;94648.06;;;16.74;55.64
10518;BME280;5307;42.548;22.968;2022-10-16T08:48:20;94654.69;;;16.58;54.21
10518;BME280;5307;42.548;22.968;2022-10-16T08:50:52;94659.56;;;17.05;53.09
10518;BME280;5307;42.548;22.968;2022-10-16T08:53:24;94660.13;;;17.72;51.54
10518;BME280;5307;42.548;22.968;2022-10-16T08:55:53;94660.97;;;17.63;51.85
10518;BME280;5307;42.548;22.968;2022-10-16T08:58:21;94665.69;;;17.00;51.15
10518;BME280;5307;42.548;22.968;2022-10-16T09:00:52;94661.47;;;17.38;51.55
10518;BME280;5307;42.548;22.968;2022-10-16T09:03:33;94655.22;;;17.91;50.20
10518;BME280;5307;42.548;22.968;2022-10-16T09:06:26;94652.44;;;17.52;49.74
10518;BME280;5307;42.548;22.968;2022-10-16T09:09:12;94649.88;;;18.31;51.57
10518;BME280;5307;42.548;22.968;2022-10-16T09:11:47;94654.75;;;18.07;49.41
10518;BME280;5307;42.548;22.968;2022-10-16T09:14:30;94655.03;;;18.09;51.25
10518;BME280;5307;42.548;22.968;2022-10-16T09:17:11;94658.28;;;17.30;49.57
10518;BME280;5307;42.548;22.968;2022-10-16T09:19:46;94653.19;;;17.76;49.80
10518;BME280;5307;42.548;22.968;2022-10-16T09:22:18;94651.50;;;17.55;50.38
10518;BME280;5307;42.548;22.968;2022-10-16T09:24:48;94647.09;;;17.72;51.35
10518;BME280;5307;42.548;22.968;2022-10-16T09:27:15;94649.69;;;18.20;49.54
10518;BME280;5307;42.548;22.968;2022-10-16T09:29:42;94647.88;;;18.32;49.16
10518;BME280;5307;42.548;22.968;2022-10-16T09:32:12;94644.75;;;19.09;46.63
10518;BME280;5307;42.548;22.968;2022-10-16T09:34:43;94634.69;;;18.42;47.49
10518;BME280;5307;42.548;22.968;2022-10-16T09:37:14;94643.16;;;18.53;48.49
10518;BME280;5307;42.548;22.968;2022-10-16T09:39:47;94647.59;;;18.15;47.45
10518;BME280;5307;42.548;22.968;2022-10-16T09:42:17;94643.41;;;18.05;46.70
10518;BME280;5307;42.548;22.968;2022-10-16T09:44:47;94647.41;;;18.04;47.17
10518;BME280;5307;42.548;22.968;2022-10-16T09:47:16;94653.31;;;17.58;46.87
10518;BME280;5307;42.548;22.968;2022-10-16T09:49:52;94639.75;;;18.43;46.33
10518;BME280;5307;42.548;22.968;2022-10-16T09:52:20;94637.94;;;18.25;46.50
10518;BME280;5307;42.548;22.968;2022-10-16T09:54:51;94632.16;;;18.08;46.79
10518;BME280;5307;42.548;22.968;2022-10-16T09:57:20;94626.91;;;19.10;45.82
10518;BME280;5307;42.548;22.968;2022-10-16T09:59:48;94626.16;;;17.95;46.67
10518;BME280;5307;42.548;22.968;2022-10-16T10:02:16;94623.78;;;18.67;44.54
10518;BME280;5307;42.548;22.968;2022-10-16T10:04:49;94625.56;;;18.21;45.35
10518;BME280;5307;42.548;22.968;2022-10-16T10:07:23;94631.66;;;18.89;44.75
10518;BME280;5307;42.548;22.968;2022-10-16T10:09:51;94621.47;;;19.42;43.09
10518;BME280;5307;42.548;22.968;2022-10-16T10:12:20;94616.00;;;18.36;43.20
10518;BME280;5307;42.548;22.968;2022-10-16T10:14:49;94620.59;;;19.10;44.61
10518;BME280;5307;42.548;22.968;2022-10-16T10:17:19;94625.66;;;17.97;44.45
10518;BME280;5307;42.548;22.968;2022-10-16T10:19:48;94628.22;;;18.45;44.06
10518;BME280;5307;42.548;22.968;2022-10-16T10:22:21;94613.94;;;18.81;43.81
10518;BME280;5307;42.548;22.968;2022-10-16T10:25:14;94617.94;;;18.30;44.56
10518;BME280;5307;42.548;22.968;2022-10-16T10:27:52;94616.28;;;18.38;43.21
10518;BME280;5307;42.548;22.968;2022-10-16T10:30:24;94618.53;;;18.05;44.54
10518;BME280;5307;42.548;22.968;2022-10-16T10:33:04;94605.19;;;18.68;42.90
10518;BME280;5307;42.548;22.968;2022-10-16T10:35:44;94601.84;;;19.19;44.57
10518;BME280;5307;42.548;22.968;2022-10-16T10:38:25;94599.41;;;19.27;42.86
10518;BME280;5307;42.548;22.968;2022-10-16T10:41:04;94597.53;;;17.98;44.15
10518;BME280;5307;42.548;22.968;2022-10-16T10:43:45;94591.13;;;18.36;45.76
10518;BME280;5307;42.548;22.968;2022-10-16T10:46:23;94588.75;;;18.79;42.13
10518;BME280;5307;42.548;22.968;2022-10-16T10:49:10;94589.16;;;18.72;42.11
10518;BME280;5307;42.548;22.968;2022-10-16T10:51:44;94584.72;;;18.80;43.88
10518;BME280;5307;42.548;22.968;2022-10-16T10:54:25;94580.03;;;19.07;43.61
10518;BME280;5307;42.548;22.968;2022-10-16T10:56:58;94581.59;;;19.13;42.17
10518;BME280;5307;42.548;22.968;2022-10-16T10:59:43;94574.38;;;18.60;42.15
10518;BME280;5307;42.548;22.968;2022-10-16T11:02:17;94577.66;;;18.79;43.14
10518;BME280;5307;42.548;22.968;2022-10-16T11:07:44;94567.03;;;18.72;39.63
10518;BME280;5307;42.548;22.968;2022-10-16T11:10:20;94568.59;;;18.99;40.71
10518;BME280;5307;42.548;22.968;2022-10-16T11:12:50;94563.97;;;18.90;39.62
10518;BME280;5307;42.548;22.968;2022-10-16T11:15:21;94554.78;;;18.79;40.45
10518;BME280;5307;42.548;22.968;2022-10-16T11:17:55;94559.63;;;18.49;39.53
10518;BME280;5307;42.548;22.968;2022-10-16T11:20:26;94564.94;;;18.17;39.97
10518;BME280;5307;42.548;22.968;2022-10-16T11:22:58;94561.94;;;18.35;40.72
10518;BME280;5307;42.548;22.968;2022-10-16T11:25:30;94555.72;;;18.40;40.66
10518;BME280;5307;42.548;22.968;2022-10-16T11:28:02;94557.94;;;18.72;39.69
10518;BME280;5307;42.548;22.968;2022-10-16T11:30:33;94557.66;;;18.69;39.04
10518;BME280;5307;42.548;22.968;2022-10-16T11:33:15;94564.19;;;18.17;39.68
10518;BME280;5307;42.548;22.968;2022-10-16T11:35:49;94568.03;;;18.39;38.23
10518;BME280;5307;42.548;22.968;2022-10-16T11:38:26;94566.56;;;18.09;38.52
10518;BME280;5307;42.548;22.968;2022-10-16T11:41:00;94557.53;;;18.44;38.65
10518;BME280;5307;42.548;22.968;2022-10-16T11:43:33;94565.53;;;18.06;38.58
10518;BME280;5307;42.548;22.968;2022-10-16T11:46:09;94559.03;;;18.59;37.98
10518;BME280;5307;42.548;22.968;2022-10-16T11:48:41;94564.75;;;18.06;37.92
10518;BME280;5307;42.548;22.968;2022-10-16T11:51:16;94558.47;;;18.05;38.27
10518;BME280;5307;42.548;22.968;2022-10-16T11:53:50;94551.91;;;18.03;37.83
10518;BME280;5307;42.548;22.968;2022-10-16T11:56:22;94561.03;;;18.09;39.00
10518;BME280;5307;42.548;22.968;2022-10-16T11:58:54;94560.44;;;18.34;40.17
10518;BME280;5307;42.548;22.968;2022-10-16T12:01:28;94560.22;;;18.38;37.29
10518;BME280;5307;42.548;22.968;2022-10-16T12:04:04;94556.47;;;18.06;37.17
10518;BME280;5307;42.548;22.968;2022-10-16T12:06:37;94562.66;;;17.71;37.36
10518;BME280;5307;42.548;22.968;2022-10-16T12:09:14;94547.13;;;18.18;38.86
10518;BME280;5307;42.548;22.968;2022-10-16T12:11:43;94554.47;;;18.42;38.15
10518;BME280;5307;42.548;22.968;2022-10-16T12:17:04;94551.31;;;17.99;38.11
10518;BME280;5307;42.548;22.968;2022-10-16T12:19:57;94552.19;;;18.05;39.21
10518;BME280;5307;42.548;22.968;2022-10-16T12:22:28;94549.03;;;17.97;37.57
10518;BME280;5307;42.548;22.968;2022-10-16T12:24:56;94550.19;;;18.05;39.01
10518;BME280;5307;42.548;22.968;2022-10-16T12:27:28;94562.75;;;17.62;38.29
10518;BME280;5307;42.548;22.968;2022-10-16T12:29:57;94563.44;;;17.87;39.79
10518;BME280;5307;42.548;22.968;2022-10-16T12:32:52;94560.00;;;17.62;38.61
10518;BME280;5307;42.548;22.968;2022-10-16T12:35:21;94555.72;;;17.76;38.51
10518;BME280;5307;42.548;22.968;2022-10-16T12:37:49;94558.66;;;17.87;38.30
10518;BME280;5307;42.548;22.968;2022-10-16T12:40:29;94554.78;;;17.94;37.53
10518;BME280;5307;42.548;22.968;2022-10-16T12:43:13;94553.72;;;17.91;37.89
10518;BME280;5307;42.548;22.968;2022-10-16T12:45:59;94557.06;;;17.80;37.78
10518;BME280;5307;42.548;22.968;2022-10-16T12:48:26;94560.50;;;17.75;37.87
10518;BME280;5307;42.548;22.968;2022-10-16T12:50:53;94558.03;;;17.77;38.17
10518;BME280;5307;42.548;22.968;2022-10-16T12:53:24;94562.56;;;17.51;36.84
10518;BME280;5307;42.548;22.968;2022-10-16T12:56:04;94558.84;;;17.54;37.30
10518;BME280;5307;42.548;22.968;2022-10-16T12:58:54;94559.31;;;17.67;37.24
10518;BME280;5307;42.548;22.968;2022-10-16T13:01:33;94563.44;;;17.72;37.55
10518;BME280;5307;42.548;22.968;2022-10-16T13:04:22;94563.13;;;17.55;36.96
10518;BME280;5307;42.548;22.968;2022-10-16T13:06:57;94563.31;;;17.51;37.62
10518;BME280;5307;42.548;22.968;2022-10-16T13:09:35;94562.00;;;17.62;38.35
10518;BME280;5307;42.548;22.968;2022-10-16T13:12:24;94566.16;;;17.57;37.13
10518;BME280;5307;42.548;22.968;2022-10-16T13:15:12;94565.03;;;17.49;37.37
10518;BME280;5307;42.548;22.968;2022-10-16T13:17:52;94568.84;;;17.51;37.10
10518;BME280;5307;42.548;22.968;2022-10-16T13:20:26;94577.88;;;17.52;37.71
10518;BME280;5307;42.548;22.968;2022-10-16T13:23:04;94575.06;;;17.23;37.36
10518;BME280;5307;42.548;22.968;2022-10-16T13:25:44;94576.63;;;17.38;36.93
10518;BME280;5307;42.548;22.968;2022-10-16T13:28:14;94570.28;;;17.47;36.65